Time;durP1;ratioP1;P1;durP2;ratioP2;P2;SDS_P1;SDS_P2;PMS_P1;PMS_P2;Temp;Humidity;BMP_temperature;BMP_pressure;BME280_temperature;BME280_humidity;BME280_pressure;Samples;Min_cycle;Max_cycle;Signal;HPM_P1;HPM_P2
2022/12/26 00:01:32;;;;;;;230.43;33.97;;;7.80;99.90;;;;;;5013244;28;20038;-83
2022/12/26 00:03:57;;;;;;;234.15;34.83;;;7.90;99.90;;;;;;5013017;28;20084;-83
2022/12/26 00:06:27;;;;;;;226.98;33.22;;;7.90;99.90;;;;;;5013009;28;20077;-82
2022/12/26 00:08:53;;;;;;;232.43;35.88;;;7.90;99.90;;;;;;5012737;28;20057;-83
2022/12/26 00:11:20;;;;;;;233.93;36.72;;;7.80;99.90;;;;;;5012905;28;20477;-83
2022/12/26 00:13:46;;;;;;;237.48;35.50;;;7.80;99.90;;;;;;5012826;28;20046;-83
2022/12/26 00:16:15;;;;;;;225.95;34.20;;;7.90;99.90;;;;;;5013077;28;20081;-83
2022/12/26 00:18:42;;;;;;;222.82;35.50;;;7.80;99.90;;;;;;5013393;28;20390;-83
2022/12/26 00:21:10;;;;;;;255.85;36.30;;;7.80;99.90;;;;;;5012838;28;20058;-83
2022/12/26 00:23:36;;;;;;;228.10;36.67;;;7.80;99.90;;;;;;5012591;28;20077;-83
2022/12/26 00:26:03;;;;;;;248.70;35.75;;;7.80;99.90;;;;;;5012733;28;20120;-83
2022/12/26 00:28:28;;;;;;;202.50;33.05;;;7.80;99.90;;;;;;5012449;28;20379;-83
2022/12/26 00:30:54;;;;;;;209.52;34.10;;;7.80;99.90;;;;;;5012826;28;20509;-83
2022/12/26 00:33:20;;;;;;;232.05;30.88;;;7.80;99.90;;;;;;5012722;28;20053;-83
2022/12/26 00:35:45;;;;;;;218.38;31.77;;;7.70;99.90;;;;;;5012348;28;20054;-83
2022/12/26 00:38:11;;;;;;;187.73;31.15;;;7.80;99.90;;;;;;5012477;28;20046;-83
2022/12/26 00:40:42;;;;;;;250.40;37.30;;;7.70;99.90;;;;;;5012498;28;20042;-83
2022/12/26 00:43:08;;;;;;;231.13;33.03;;;7.80;99.90;;;;;;5012773;28;20461;-83
2022/12/26 00:45:34;;;;;;;290.40;36.50;;;7.80;99.90;;;;;;5012500;28;20112;-83
2022/12/26 00:48:00;;;;;;;228.48;33.50;;;7.70;99.90;;;;;;5012291;28;20129;-83
2022/12/26 00:50:26;;;;;;;289.38;35.47;;;7.80;99.90;;;;;;5012363;28;20129;-83
2022/12/26 00:52:52;;;;;;;287.00;35.47;;;7.80;99.90;;;;;;5012385;28;20038;-83
2022/12/26 00:55:20;;;;;;;300.95;34.75;;;7.70;99.90;;;;;;5012422;28;20049;-83
2022/12/26 00:57:46;;;;;;;245.80;30.00;;;7.70;99.90;;;;;;5012599;28;20061;-83
2022/12/26 01:00:12;;;;;;;290.73;36.00;;;7.80;99.90;;;;;;5012653;28;20042;-83
2022/12/26 01:02:38;;;;;;;214.50;31.27;;;7.70;99.90;;;;;;5012393;28;20054;-83
2022/12/26 01:05:09;;;;;;;254.10;30.58;;;7.70;99.90;;;;;;5012124;28;20061;-83
2022/12/26 01:07:36;;;;;;;228.93;29.42;;;7.80;99.90;;;;;;5012284;28;20042;-83
2022/12/26 01:10:07;;;;;;;234.55;31.10;;;7.70;99.90;;;;;;5012450;28;20049;-83
2022/12/26 01:12:33;;;;;;;232.25;30.30;;;7.80;99.90;;;;;;5012307;28;20050;-83
2022/12/26 01:14:59;;;;;;;265.45;33.97;;;7.80;99.90;;;;;;5012293;28;20088;-83
2022/12/26 01:17:27;;;;;;;206.10;30.98;;;7.70;99.90;;;;;;5012119;28;20042;-83
2022/12/26 01:19:53;;;;;;;234.15;30.45;;;7.70;99.90;;;;;;5012061;28;20045;-83
2022/12/26 01:22:19;;;;;;;208.88;29.65;;;7.70;99.90;;;;;;5012357;28;20061;-83
2022/12/26 01:24:45;;;;;;;210.27;29.10;;;7.70;99.90;;;;;;5011878;28;20492;-83
2022/12/26 01:27:11;;;;;;;186.73;32.15;;;7.80;99.90;;;;;;5012145;28;20137;-83
2022/12/26 01:29:36;;;;;;;222.43;33.97;;;7.70;99.90;;;;;;5012154;28;20038;-83
2022/12/26 01:32:02;;;;;;;194.10;29.02;;;7.70;99.90;;;;;;5014116;28;20057;-83
2022/12/26 01:34:28;;;;;;;198.43;30.98;;;7.70;99.90;;;;;;5015403;28;20081;-83
2022/12/26 01:36:54;;;;;;;212.07;33.22;;;7.70;99.90;;;;;;5015424;28;20050;-82
2022/12/26 01:39:20;;;;;;;241.48;34.00;;;7.70;99.90;;;;;;5015797;28;20052;-82
2022/12/26 01:41:46;;;;;;;216.88;29.92;;;7.70;99.90;;;;;;5016741;28;20072;-83
2022/12/26 01:45:09;;;;;;;206.60;30.35;;;7.70;99.90;;;;;;5015206;28;20425;-83
2022/12/26 01:47:40;;;;;;;220.35;30.25;;;7.70;99.90;;;;;;4995204;28;20090;-83
2022/12/26 01:50:18;;;;;;;237.77;36.15;;;7.70;99.90;;;;;;4995158;28;20093;-83
2022/12/26 01:52:45;;;;;;;216.52;34.78;;;7.70;99.90;;;;;;4998623;28;20054;-83
2022/12/26 01:55:14;;;;;;;218.73;34.17;;;7.70;99.90;;;;;;5015251;28;20053;-83
2022/12/26 01:57:43;;;;;;;210.18;34.85;;;7.80;99.90;;;;;;5015439;28;20057;-83
2022/12/26 02:00:09;;;;;;;211.27;34.30;;;7.70;99.90;;;;;;5016422;28;20050;-83
2022/12/26 02:05:32;;;;;;;196.75;33.92;;;7.70;99.90;;;;;;5015164;28;20049;-82
2022/12/26 02:05:35;;;;;;;198.88;33.15;;;7.70;99.90;;;;;;5015424;28;20056;-83
2022/12/26 02:08:11;;;;;;;198.32;32.40;;;7.80;99.90;;;;;;5015164;28;20508;-82
2022/12/26 02:10:53;;;;;;;181.50;30.48;;;7.70;99.90;;;;;;5015035;28;20040;-82
2022/12/26 02:13:19;;;;;;;197.15;34.53;;;7.80;99.90;;;;;;5015062;28;20051;-82
2022/12/26 02:15:45;;;;;;;193.13;31.67;;;7.80;99.90;;;;;;5015093;28;20041;-83
2022/12/26 02:18:11;;;;;;;171.25;31.73;;;7.80;99.90;;;;;;5014651;28;20046;-83
2022/12/26 02:20:52;;;;;;;185.15;30.95;;;7.80;99.90;;;;;;5015005;28;20111;-83
2022/12/26 02:23:30;;;;;;;159.63;32.10;;;7.90;99.90;;;;;;5014812;28;20057;-83
2022/12/26 02:26:15;;;;;;;175.55;31.10;;;7.90;99.90;;;;;;5014892;28;20054;-83
2022/12/26 02:28:49;;;;;;;165.85;29.80;;;7.80;99.90;;;;;;5014630;28;20060;-82
2022/12/26 02:32:07;;;;;;;175.23;30.70;;;7.90;99.90;;;;;;5014906;28;20069;-83
2022/12/26 02:34:59;;;;;;;163.93;26.13;;;7.90;99.90;;;;;;4996519;28;20058;-83
2022/12/26 02:37:59;;;;;;;155.52;28.40;;;7.90;99.90;;;;;;5015811;28;20120;-83
2022/12/26 02:40:28;;;;;;;140.27;26.38;;;7.90;99.90;;;;;;5014282;28;20042;-83
2022/12/26 02:43:22;;;;;;;146.27;27.10;;;7.90;99.90;;;;;;5014162;28;20093;-83
2022/12/26 02:49:07;;;;;;;160.93;26.42;;;7.90;99.90;;;;;;5014140;28;20046;-83
2022/12/26 03:14:58;;;;;;;145.73;31.52;;;8.00;99.90;;;;;;5013771;28;20421;-83
2022/12/26 03:17:37;;;;;;;152.60;30.83;;;8.10;99.90;;;;;;5014079;28;20095;-83
2022/12/26 03:20:32;;;;;;;145.20;30.33;;;8.00;99.90;;;;;;5013582;28;20060;-83
2022/12/26 03:23:13;;;;;;;160.32;32.80;;;8.00;99.90;;;;;;5013693;28;20092;-83
2022/12/26 03:28:40;;;;;;;159.75;33.92;;;8.00;99.90;;;;;;5013655;28;20171;-83
2022/12/26 03:31:09;;;;;;;152.85;33.17;;;8.00;99.90;;;;;;5013396;28;20050;-83
2022/12/26 03:36:41;;;;;;;177.38;35.20;;;8.10;99.90;;;;;;5013176;28;20477;-83
2022/12/26 04:44:24;;;;;;;177.70;37.15;;;8.00;99.90;;;;;;5012542;28;20482;-83
2022/12/26 04:46:52;;;;;;;180.23;38.50;;;8.10;99.90;;;;;;5012561;28;20055;-83
2022/12/26 04:52:07;;;;;;;185.77;35.67;;;8.00;99.90;;;;;;5012376;28;20053;-82
2022/12/26 04:54:32;;;;;;;160.80;33.70;;;8.00;99.90;;;;;;5012555;28;20041;-82
2022/12/26 04:56:58;;;;;;;174.13;34.50;;;8.10;99.90;;;;;;5012643;28;20397;-82
2022/12/26 04:59:24;;;;;;;183.82;33.80;;;8.00;99.90;;;;;;5012669;28;20096;-82
2022/12/26 05:10:09;;;;;;;165.95;36.75;;;8.10;99.90;;;;;;5016136;28;20100;-82
2022/12/26 05:12:35;;;;;;;180.70;41.15;;;8.00;99.90;;;;;;5016224;28;20060;-82
2022/12/26 05:15:00;;;;;;;161.88;39.50;;;8.10;99.90;;;;;;5015867;28;20041;-82
2022/12/26 05:28:41;;;;;;;147.85;37.95;;;8.00;99.90;;;;;;5015878;28;20050;-82
2022/12/26 05:31:11;;;;;;;135.50;35.20;;;8.00;99.90;;;;;;5015650;28;20073;-83
2022/12/26 05:36:24;;;;;;;143.30;36.03;;;7.80;99.90;;;;;;5015884;28;20206;-82
2022/12/26 05:38:51;;;;;;;138.27;37.22;;;7.80;99.90;;;;;;5015714;28;20069;-83
2022/12/26 05:41:17;;;;;;;127.20;35.78;;;7.80;99.90;;;;;;5015534;28;20093;-82
2022/12/26 05:43:43;;;;;;;129.68;34.25;;;7.80;99.90;;;;;;5015204;28;20049;-82
2022/12/26 05:46:09;;;;;;;128.02;33.30;;;7.70;99.90;;;;;;5015404;28;20045;-82
2022/12/26 05:48:34;;;;;;;121.22;32.40;;;7.80;99.90;;;;;;5015513;28;20041;-82
2022/12/26 05:51:02;;;;;;;120.22;31.92;;;7.70;99.90;;;;;;5015611;28;20076;-82
2022/12/26 05:53:29;;;;;;;123.60;32.85;;;7.80;99.90;;;;;;5015661;28;20096;-82
2022/12/26 05:55:55;;;;;;;140.57;33.20;;;7.80;99.90;;;;;;5015574;28;20520;-82
2022/12/26 05:58:20;;;;;;;123.63;35.53;;;7.80;99.90;;;;;;5015139;28;20045;-82
2022/12/26 06:00:46;;;;;;;128.57;36.13;;;7.90;99.90;;;;;;5015055;28;20030;-82
2022/12/26 06:03:12;;;;;;;124.88;35.33;;;7.80;99.90;;;;;;5015615;28;20050;-82
2022/12/26 06:05:38;;;;;;;131.25;36.33;;;7.80;99.90;;;;;;5015114;28;20046;-82
2022/12/26 06:08:04;;;;;;;136.13;36.05;;;7.70;99.90;;;;;;5015317;28;20049;-82
2022/12/26 06:10:29;;;;;;;140.93;33.78;;;7.80;99.90;;;;;;5015045;28;20418;-82
2022/12/26 06:12:55;;;;;;;114.63;32.35;;;7.80;99.90;;;;;;5014865;28;20097;-82
2022/12/26 06:15:21;;;;;;;121.80;37.47;;;7.80;99.90;;;;;;5014809;28;20474;-82
2022/12/26 06:17:47;;;;;;;118.50;31.52;;;7.80;99.90;;;;;;5014175;28;20042;-83
2022/12/26 06:20:13;;;;;;;113.38;31.20;;;7.80;99.90;;;;;;5016057;28;20057;-82
2022/12/26 06:22:38;;;;;;;109.28;31.60;;;7.80;99.90;;;;;;5014625;28;20048;-82
2022/12/26 06:25:04;;;;;;;125.60;32.60;;;7.80;99.90;;;;;;5014686;28;20054;-82
2022/12/26 06:27:30;;;;;;;103.88;31.13;;;7.90;99.90;;;;;;5014813;28;20042;-82
2022/12/26 06:29:56;;;;;;;99.82;28.33;;;7.80;99.90;;;;;;5014526;28;20482;-82
2022/12/26 06:32:21;;;;;;;99.10;30.20;;;7.90;99.90;;;;;;5014511;28;20046;-82
2022/12/26 06:34:47;;;;;;;124.70;33.22;;;8.00;99.90;;;;;;5014221;28;20062;-82
2022/12/26 06:37:13;;;;;;;104.80;31.35;;;8.00;99.90;;;;;;5014563;28;20046;-82
2022/12/26 06:39:38;;;;;;;110.25;32.17;;;8.00;99.90;;;;;;5014454;28;20133;-82
2022/12/26 06:42:04;;;;;;;114.97;30.65;;;8.00;99.90;;;;;;5014532;28;20129;-82
2022/12/26 06:44:30;;;;;;;102.88;31.73;;;8.00;99.90;;;;;;5014290;28;20119;-82
2022/12/26 06:46:55;;;;;;;103.60;30.27;;;8.00;99.90;;;;;;5014287;28;20449;-82
2022/12/26 06:49:21;;;;;;;113.75;31.30;;;8.00;99.90;;;;;;5014289;28;20046;-82
2022/12/26 06:51:47;;;;;;;118.50;33.67;;;8.00;99.90;;;;;;5014172;28;20077;-82
2022/12/26 06:54:15;;;;;;;100.03;30.60;;;8.00;99.90;;;;;;5014266;28;20056;-82
2022/12/26 06:56:41;;;;;;;85.80;27.45;;;8.00;99.90;;;;;;5013956;28;20042;-82
2022/12/26 06:59:06;;;;;;;82.63;26.05;;;8.00;99.90;;;;;;5014277;28;20132;-82
2022/12/26 07:01:34;;;;;;;105.15;31.58;;;8.00;99.90;;;;;;5013986;28;20441;-82
2022/12/26 07:04:00;;;;;;;93.82;29.25;;;7.90;99.90;;;;;;5014038;28;20046;-82
2022/12/26 07:06:28;;;;;;;92.45;30.35;;;7.90;99.90;;;;;;5013922;28;20419;-82
2022/12/26 07:09:00;;;;;;;108.50;29.98;;;8.00;99.90;;;;;;5014195;28;20050;-82
2022/12/26 07:11:29;;;;;;;94.72;27.77;;;7.90;99.90;;;;;;5013721;28;20053;-82
2022/12/26 07:13:55;;;;;;;94.38;27.23;;;7.90;99.90;;;;;;5013962;28;20072;-82
2022/12/26 07:16:22;;;;;;;82.40;26.92;;;7.90;99.90;;;;;;5013727;28;20073;-82
2022/12/26 07:18:47;;;;;;;87.93;28.23;;;8.00;99.90;;;;;;5013646;28;20061;-82
2022/12/26 07:21:17;;;;;;;79.43;25.75;;;7.90;99.90;;;;;;5013749;28;20045;-82
2022/12/26 07:23:43;;;;;;;81.03;25.20;;;7.80;99.90;;;;;;5013586;28;20045;-82
2022/12/26 07:26:09;;;;;;;76.40;24.35;;;7.80;99.90;;;;;;5013790;28;20053;-82
2022/12/26 07:28:34;;;;;;;74.93;23.08;;;7.80;99.90;;;;;;5012571;28;20132;-82
2022/12/26 07:31:00;;;;;;;63.75;21.35;;;7.70;99.90;;;;;;5013458;28;20133;-81
2022/12/26 07:33:27;;;;;;;76.65;23.40;;;7.80;99.90;;;;;;5014894;28;20041;-81
2022/12/26 07:35:53;;;;;;;69.55;21.23;;;7.80;99.90;;;;;;5013208;28;20498;-82
2022/12/26 07:38:19;;;;;;;70.43;24.80;;;7.80;99.90;;;;;;5013192;28;20049;-81
2022/12/26 07:40:44;;;;;;;62.55;22.73;;;7.70;99.90;;;;;;5013136;28;20173;-81
2022/12/26 07:43:10;;;;;;;67.25;20.63;;;7.80;99.90;;;;;;5012901;28;20175;-81
2022/12/26 07:45:35;;;;;;;69.07;20.17;;;7.80;99.90;;;;;;5012275;28;20050;-81
2022/12/26 07:48:01;;;;;;;60.50;19.60;;;7.80;99.90;;;;;;5012323;28;20069;-81
2022/12/26 07:50:27;;;;;;;61.75;19.55;;;7.70;99.90;;;;;;5013479;28;20053;-82
2022/12/26 07:52:53;;;;;;;57.28;19.48;;;7.70;99.90;;;;;;5013208;28;20476;-81
2022/12/26 07:55:20;;;;;;;67.00;20.95;;;7.80;99.90;;;;;;5013099;28;20414;-81
2022/12/26 07:57:50;;;;;;;54.97;18.33;;;7.80;99.90;;;;;;5013008;28;20073;-82
2022/12/26 08:00:18;;;;;;;48.53;17.08;;;7.80;99.90;;;;;;5013099;28;20054;-81
2022/12/26 08:02:44;;;;;;;46.28;16.05;;;7.70;99.90;;;;;;5012809;28;20084;-84
2022/12/26 08:05:09;;;;;;;52.35;18.10;;;7.90;99.90;;;;;;5012807;28;20046;-82
2022/12/26 08:07:35;;;;;;;52.15;16.60;;;7.80;99.90;;;;;;5014280;28;20057;-80
2022/12/26 08:10:01;;;;;;;44.75;15.48;;;7.80;99.90;;;;;;5012772;28;20046;-82
2022/12/26 08:12:26;;;;;;;44.72;14.82;;;7.70;99.90;;;;;;5012689;28;20041;-82
2022/12/26 08:14:52;;;;;;;46.88;14.60;;;7.80;99.90;;;;;;5012692;28;20056;-82
2022/12/26 08:17:18;;;;;;;46.40;14.85;;;7.70;99.90;;;;;;5012842;28;20049;-82
2022/12/26 08:19:43;;;;;;;38.83;14.45;;;7.80;99.90;;;;;;5012776;28;20050;-82
2022/12/26 08:22:09;;;;;;;44.20;15.73;;;7.90;99.90;;;;;;5012761;28;20046;-82
2022/12/26 08:24:34;;;;;;;42.83;15.00;;;7.90;99.90;;;;;;5012513;28;20046;-82
2022/12/26 08:27:00;;;;;;;41.67;15.20;;;8.00;99.90;;;;;;5012521;28;20406;-83
2022/12/26 08:29:26;;;;;;;38.42;14.30;;;8.00;99.90;;;;;;5012473;28;20056;-82
2022/12/26 08:31:52;;;;;;;39.05;12.73;;;8.00;99.90;;;;;;5012406;28;20033;-81
2022/12/26 08:34:17;;;;;;;39.08;13.10;;;8.10;99.90;;;;;;5012190;28;20060;-81
2022/12/26 08:36:43;;;;;;;36.58;13.88;;;8.10;99.90;;;;;;5012377;28;20050;-82
2022/12/26 08:39:09;;;;;;;43.30;13.23;;;8.20;99.90;;;;;;5007783;28;20042;-83
2022/12/26 08:41:34;;;;;;;48.45;13.55;;;8.20;99.90;;;;;;5004485;28;20046;-83
2022/12/26 08:44:00;;;;;;;35.80;13.38;;;8.20;99.90;;;;;;4996807;28;20046;-83
2022/12/26 08:46:26;;;;;;;51.60;14.73;;;8.20;99.90;;;;;;4996571;28;20406;-84
2022/12/26 08:48:52;;;;;;;37.67;12.80;;;8.30;99.90;;;;;;4996842;28;20082;-83
2022/12/26 08:51:23;;;;;;;44.63;15.00;;;8.20;99.90;;;;;;4996779;28;20038;-83
2022/12/26 08:53:50;;;;;;;39.83;13.43;;;8.20;99.90;;;;;;4996869;28;20050;-88
2022/12/26 08:56:19;;;;;;;39.42;15.00;;;8.10;99.90;;;;;;4996441;28;20046;-82
2022/12/26 08:58:46;;;;;;;36.92;13.27;;;8.10;99.90;;;;;;4997559;28;20498;-82
2022/12/26 09:01:20;;;;;;;33.45;12.82;;;8.20;99.90;;;;;;4997797;28;20093;-83
2022/12/26 09:03:47;;;;;;;42.33;16.25;;;8.10;99.90;;;;;;4996509;28;20042;-84
2022/12/26 09:06:14;;;;;;;44.83;16.85;;;8.00;99.90;;;;;;4996177;28;20054;-84
2022/12/26 09:08:40;;;;;;;39.83;15.95;;;8.10;99.90;;;;;;5002686;28;20038;-79
2022/12/26 09:11:12;;;;;;;42.42;17.10;;;8.10;99.90;;;;;;5016597;28;20092;-79
2022/12/26 09:13:38;;;;;;;38.60;15.73;;;8.10;99.90;;;;;;5015748;28;20050;-80
2022/12/26 09:16:19;;;;;;;36.20;14.20;;;8.00;99.90;;;;;;5002881;28;20068;-81
2022/12/26 09:18:45;;;;;;;42.72;15.70;;;8.00;99.90;;;;;;5015816;28;20041;-80
2022/12/26 09:21:12;;;;;;;40.08;12.68;;;8.10;99.90;;;;;;5015533;28;20245;-81
2022/12/26 09:23:39;;;;;;;37.50;12.88;;;8.00;99.90;;;;;;5016458;28;20053;-82
2022/12/26 09:26:16;;;;;;;35.03;11.45;;;8.10;99.90;;;;;;5009004;28;20494;-80
2022/12/26 09:28:44;;;;;;;48.05;8.32;;;8.10;99.90;;;;;;5014666;28;20050;-81
2022/12/26 09:31:22;;;;;;;40.30;7.05;;;8.00;99.90;;;;;;5015085;28;20064;-81
2022/12/26 09:33:48;;;;;;;26.38;4.72;;;7.90;99.90;;;;;;5015129;28;20041;-81
2022/12/26 09:36:17;;;;;;;31.95;4.40;;;7.80;99.90;;;;;;5015526;28;20097;-82
2022/12/26 09:38:44;;;;;;;34.58;3.75;;;7.60;99.90;;;;;;5016243;28;20049;-80
2022/12/26 09:41:15;;;;;;;32.08;4.88;;;7.60;99.90;;;;;;5014274;28;20038;-81
2022/12/26 09:43:53;;;;;;;29.83;4.68;;;7.50;99.90;;;;;;5015106;28;20052;-81
2022/12/26 09:46:30;;;;;;;27.17;4.57;;;7.50;99.90;;;;;;5015039;28;20049;-80
2022/12/26 09:49:05;;;;;;;25.73;4.45;;;7.40;99.90;;;;;;5015199;28;20065;-83
2022/12/26 09:51:33;;;;;;;24.05;4.10;;;7.50;99.90;;;;;;5015331;28;20100;-78
2022/12/26 09:54:00;;;;;;;41.60;5.03;;;7.40;99.90;;;;;;5014337;28;20046;-82
2022/12/26 09:56:26;;;;;;;40.78;6.28;;;7.50;99.90;;;;;;5015089;28;20056;-82
2022/12/26 09:58:55;;;;;;;26.98;3.85;;;7.40;99.90;;;;;;5015133;28;20042;-82
2022/12/26 10:01:28;;;;;;;18.67;3.65;;;7.40;99.90;;;;;;5015271;28;20104;-84
2022/12/26 10:03:55;;;;;;;22.98;4.03;;;7.30;99.90;;;;;;5015109;28;20050;-83
2022/12/26 10:06:27;;;;;;;29.95;4.55;;;7.40;99.90;;;;;;5014895;28;20089;-82
2022/12/26 10:09:08;;;;;;;32.00;3.95;;;7.40;99.90;;;;;;5014924;28;20050;-82
2022/12/26 10:11:51;;;;;;;33.25;4.30;;;7.60;99.90;;;;;;5015106;28;20145;-83
2022/12/26 10:14:36;;;;;;;36.78;5.20;;;7.60;99.90;;;;;;5014930;28;20042;-82
2022/12/26 10:17:13;;;;;;;28.30;4.55;;;7.60;99.90;;;;;;5014679;28;20544;-83
2022/12/26 10:20:16;;;;;;;56.72;5.32;;;7.50;99.90;;;;;;5014713;28;20096;-83
2022/12/26 10:23:07;;;;;;;37.00;4.47;;;7.60;99.90;;;;;;5014881;28;20053;-82
2022/12/26 10:25:41;;;;;;;32.70;5.80;;;7.50;99.90;;;;;;5014759;28;20417;-82
2022/12/26 10:28:21;;;;;;;34.20;3.53;;;7.50;99.90;;;;;;5014525;28;20057;-82
2022/12/26 10:30:49;;;;;;;28.25;5.32;;;7.60;99.90;;;;;;5014807;28;20050;-82
2022/12/26 10:33:32;;;;;;;37.60;4.60;;;7.50;99.90;;;;;;5014652;28;20041;-82
2022/12/26 10:35:58;;;;;;;31.98;4.22;;;7.30;99.90;;;;;;5014231;28;20115;-83
2022/12/26 10:38:40;;;;;;;22.65;3.67;;;7.40;99.90;;;;;;5014525;28;20053;-83
2022/12/26 10:41:24;;;;;;;19.58;3.17;;;7.30;99.90;;;;;;5014343;28;20080;-84
2022/12/26 10:43:50;;;;;;;25.73;3.25;;;7.20;99.90;;;;;;5014522;28;20076;-82
2022/12/26 10:46:40;;;;;;;13.45;1.65;;;7.20;99.90;;;;;;5014081;28;20045;-82
2022/12/26 10:49:14;;;;;;;24.02;2.40;;;7.10;99.90;;;;;;5014289;28;20041;-82
2022/12/26 10:51:39;;;;;;;12.88;1.38;;;7.00;99.90;;;;;;5014273;28;20045;-81
2022/12/26 10:54:16;;;;;;;22.70;2.28;;;7.20;99.90;;;;;;5014043;28;20433;-82
2022/12/26 10:56:46;;;;;;;30.85;4.57;;;7.20;99.90;;;;;;5014164;28;20068;-82
2022/12/26 10:59:20;;;;;;;14.23;1.95;;;7.20;99.90;;;;;;5013990;28;20078;-82
2022/12/26 11:01:47;;;;;;;22.45;2.50;;;7.20;99.90;;;;;;5013826;28;20124;-82
2022/12/26 11:04:23;;;;;;;20.95;2.05;;;7.20;99.90;;;;;;5013946;28;20038;-82
2022/12/26 11:06:52;;;;;;;18.58;2.22;;;7.20;99.90;;;;;;5012589;28;20057;-82
2022/12/26 11:09:34;;;;;;;25.52;1.98;;;7.20;99.90;;;;;;5013652;28;20042;-82
2022/12/26 11:12:01;;;;;;;15.53;2.30;;;7.10;99.90;;;;;;5012699;28;20069;-82
2022/12/26 11:14:35;;;;;;;14.80;2.10;;;7.10;99.90;;;;;;5011973;28;20099;-82
2022/12/26 11:17:07;;;;;;;20.05;2.45;;;7.00;99.90;;;;;;5013717;28;20046;-82
2022/12/26 11:19:38;;;;;;;23.25;2.97;;;7.10;99.90;;;;;;5013653;28;20081;-82
2022/12/26 11:22:13;;;;;;;20.70;2.17;;;7.00;99.90;;;;;;5013598;28;20050;-82
2022/12/26 11:24:38;;;;;;;28.83;2.75;;;7.00;99.90;;;;;;5013488;28;20115;-82
2022/12/26 11:27:22;;;;;;;25.30;4.28;;;7.00;99.90;;;;;;5013127;28;20397;-82
2022/12/26 11:29:48;;;;;;;18.58;1.95;;;6.80;99.90;;;;;;5013410;28;20104;-81
2022/12/26 11:32:19;;;;;;;19.83;1.88;;;6.90;99.90;;;;;;5013224;28;20046;-82
2022/12/26 11:34:47;;;;;;;26.77;2.78;;;6.90;99.90;;;;;;5013272;28;20046;-82
2022/12/26 11:37:26;;;;;;;25.88;2.88;;;7.00;99.90;;;;;;5013530;28;20049;-82
2022/12/26 11:39:52;;;;;;;21.63;3.22;;;7.00;99.90;;;;;;5013035;28;20046;-82
2022/12/26 11:42:21;;;;;;;27.70;5.03;;;7.00;99.90;;;;;;5013170;28;20061;-82
2022/12/26 11:44:51;;;;;;;23.48;3.15;;;7.10;99.90;;;;;;5013123;28;20404;-82
2022/12/26 11:47:20;;;;;;;26.77;3.10;;;6.90;99.90;;;;;;5013329;28;20049;-82
2022/12/26 11:50:08;;;;;;;18.40;2.58;;;6.90;99.90;;;;;;5014321;28;20472;-82
2022/12/26 11:52:54;;;;;;;22.58;2.78;;;6.90;99.90;;;;;;5012787;28;20052;-82
2022/12/26 11:55:23;;;;;;;24.48;2.95;;;7.00;99.90;;;;;;5013102;28;20038;-82
2022/12/26 11:58:07;;;;;;;44.55;4.65;;;6.90;99.90;;;;;;5013180;28;20053;-82
2022/12/26 12:00:33;;;;;;;32.63;4.93;;;6.90;99.90;;;;;;5014107;28;20060;-82
2022/12/26 12:03:00;;;;;;;31.40;3.28;;;7.00;99.90;;;;;;5012837;28;20125;-82
2022/12/26 12:05:47;;;;;;;32.10;4.55;;;7.00;99.90;;;;;;5012700;28;20045;-82
2022/12/26 12:08:22;;;;;;;22.35;3.67;;;7.00;99.90;;;;;;5012742;28;20505;-82
2022/12/26 12:10:58;;;;;;;23.85;3.55;;;7.10;99.90;;;;;;5012809;28;20050;-82
2022/12/26 12:13:40;;;;;;;34.20;3.78;;;7.20;99.90;;;;;;5012639;28;20041;-82
2022/12/26 12:16:47;;;;;;;29.02;4.35;;;7.10;99.90;;;;;;5012346;28;20046;-83
2022/12/26 12:19:22;;;;;;;32.50;3.58;;;7.10;99.90;;;;;;4975790;28;20057;-85
2022/12/26 12:21:56;;;;;;;26.98;3.72;;;7.20;99.90;;;;;;5006658;28;20058;-84
2022/12/26 12:24:52;;;;;;;25.02;2.72;;;7.20;99.90;;;;;;5012506;28;20048;-85
2022/12/26 12:27:23;;;;;;;30.95;4.10;;;7.20;99.90;;;;;;5012313;28;20052;-84
2022/12/26 12:30:17;;;;;;;23.50;3.50;;;7.30;99.90;;;;;;5012032;28;20053;-83
2022/12/26 12:32:48;;;;;;;22.17;3.03;;;7.30;99.90;;;;;;5012765;28;20081;-83
2022/12/26 12:35:25;;;;;;;30.67;4.32;;;7.30;99.90;;;;;;5012318;28;20061;-84
2022/12/26 12:38:23;;;;;;;34.38;6.72;;;7.20;99.90;;;;;;5012193;28;20485;-85
2022/12/26 12:41:08;;;;;;;28.98;3.83;;;7.30;99.90;;;;;;5012340;28;20081;-85
2022/12/26 12:43:40;;;;;;;25.75;4.38;;;7.20;99.90;;;;;;5012220;28;20131;-82
2022/12/26 12:46:18;;;;;;;36.67;4.22;;;7.20;99.90;;;;;;5012753;28;20379;-84
2022/12/26 12:48:56;;;;;;;26.45;2.88;;;7.20;99.90;;;;;;5012527;28;20192;-84
2022/12/26 12:51:44;;;;;;;19.42;3.22;;;7.20;99.90;;;;;;5012313;28;20513;-84
2022/12/26 12:54:39;;;;;;;22.42;3.15;;;7.20;99.90;;;;;;5012325;28;20398;-83
2022/12/26 12:57:19;;;;;;;23.52;4.10;;;7.20;99.90;;;;;;5012545;28;20050;-84
2022/12/26 12:59:48;;;;;;;24.50;3.92;;;7.20;99.90;;;;;;5012497;28;20046;-83
2022/12/26 13:02:54;;;;;;;19.83;2.38;;;7.20;99.90;;;;;;5012199;28;20050;-84
2022/12/26 13:05:57;;;;;;;24.73;3.95;;;7.10;99.90;;;;;;5012098;28;20132;-84
2022/12/26 13:08:31;;;;;;;23.92;2.75;;;7.10;99.90;;;;;;5012330;28;20507;-83
2022/12/26 13:11:05;;;;;;;22.02;4.22;;;7.10;99.90;;;;;;5012419;28;20048;-81
2022/12/26 13:13:41;;;;;;;25.63;3.20;;;7.10;99.90;;;;;;5012133;28;20425;-84
2022/12/26 13:16:24;;;;;;;24.15;3.65;;;7.10;99.90;;;;;;5012093;28;20041;-83
2022/12/26 13:18:58;;;;;;;19.65;1.90;;;7.10;99.90;;;;;;5012181;28;20128;-81
2022/12/26 13:21:25;;;;;;;23.35;2.53;;;7.10;99.90;;;;;;5012318;28;20069;-81
2022/12/26 13:24:24;;;;;;;24.13;3.30;;;7.10;99.90;;;;;;5012104;28;20041;-81
2022/12/26 13:26:53;;;;;;;22.40;3.28;;;7.10;99.90;;;;;;5014172;28;20045;-81
2022/12/26 13:29:36;;;;;;;28.95;4.65;;;7.00;99.90;;;;;;5015643;28;20088;-85
2022/12/26 13:32:11;;;;;;;28.50;3.75;;;7.10;99.90;;;;;;5015589;28;20489;-84
2022/12/26 13:34:37;;;;;;;25.63;2.63;;;7.10;99.90;;;;;;5015620;28;20058;-85
2022/12/26 13:37:03;;;;;;;28.60;5.00;;;7.10;99.90;;;;;;5015461;28;20049;-85
2022/12/26 13:39:33;;;;;;;14.35;2.45;;;7.10;99.90;;;;;;5015411;28;20041;-84
2022/12/26 13:44:50;;;;;;;32.22;3.85;;;7.10;99.90;;;;;;5015408;28;20041;-85
2022/12/26 13:47:37;;;;;;;22.92;2.70;;;7.10;99.90;;;;;;5016876;28;20042;-84
2022/12/26 13:50:41;;;;;;;22.67;2.58;;;7.00;99.90;;;;;;5015330;28;20132;-85
2022/12/26 13:53:53;;;;;;;20.42;2.80;;;7.10;99.90;;;;;;5015467;28;20054;-84
2022/12/26 13:56:18;;;;;;;24.55;2.95;;;7.00;99.90;;;;;;5012113;28;20042;-84
2022/12/26 13:58:59;;;;;;;20.80;2.30;;;6.90;99.90;;;;;;5015327;28;20046;-84
2022/12/26 14:02:01;;;;;;;12.45;2.28;;;6.90;99.90;;;;;;5015286;28;20125;-83
2022/12/26 14:05:00;;;;;;;27.77;3.47;;;6.80;99.90;;;;;;4963616;28;20062;-86
2022/12/26 14:07:38;;;;;;;28.95;2.78;;;6.70;99.90;;;;;;5015163;28;20081;-84
2022/12/26 14:10:11;;;;;;;23.02;3.15;;;6.70;99.90;;;;;;5014381;28;20099;-84
2022/12/26 14:13:06;;;;;;;28.85;3.58;;;6.70;99.90;;;;;;5014852;28;20437;-83
2022/12/26 14:15:46;;;;;;;17.63;2.47;;;6.70;99.90;;;;;;4980653;28;20115;-85
2022/12/26 14:18:30;;;;;;;24.58;3.40;;;6.60;99.90;;;;;;5015009;28;20508;-85
2022/12/26 14:21:27;;;;;;;24.70;3.45;;;6.50;99.90;;;;;;5014664;28;20481;-83
2022/12/26 14:24:11;;;;;;;21.77;3.40;;;6.50;99.90;;;;;;5014647;28;20053;-83
2022/12/26 14:26:47;;;;;;;16.33;2.35;;;6.50;99.90;;;;;;5015010;28;20045;-83
2022/12/26 14:29:31;;;;;;;25.02;2.40;;;6.50;99.90;;;;;;5013858;28;20045;-84
2022/12/26 14:32:25;;;;;;;20.60;4.35;;;6.50;99.90;;;;;;5014698;28;20127;-83
2022/12/26 14:34:58;;;;;;;;;;;6.50;99.90;;;;;;5014678;28;20054;-83
2022/12/26 14:38:01;;;;;;;18.08;2.75;;;6.50;99.90;;;;;;5014482;28;19926;-85
2022/12/26 14:40:33;;;;;;;16.92;2.78;;;6.40;99.90;;;;;;5014501;28;20053;-84
2022/12/26 14:43:10;;;;;;;17.92;2.38;;;6.40;99.90;;;;;;5014953;28;20038;-82
2022/12/26 14:45:36;;;;;;;10.02;1.70;;;6.30;99.90;;;;;;5014277;28;20049;-82
2022/12/26 14:48:14;;;;;;;17.45;3.15;;;6.30;99.90;;;;;;5014528;28;20092;-82
2022/12/26 14:50:48;;;;;;;25.67;3.70;;;6.20;99.90;;;;;;5014269;28;20091;-82
2022/12/26 14:53:23;;;;;;;19.40;2.08;;;6.20;99.90;;;;;;5014099;28;20549;-82
2022/12/26 14:55:52;;;;;;;15.00;2.28;;;6.10;99.90;;;;;;5014579;28;20046;-85
2022/12/26 14:58:38;;;;;;;25.27;2.38;;;6.20;99.90;;;;;;5014152;28;20096;-86
2022/12/26 15:01:19;;;;;;;19.98;2.25;;;6.10;99.90;;;;;;5013905;28;20062;-85
2022/12/26 15:04:02;;;;;;;18.10;2.17;;;6.10;99.90;;;;;;5013782;28;20050;-85
2022/12/26 15:07:01;;;;;;;23.45;3.90;;;6.00;99.90;;;;;;5014175;28;20501;-85
2022/12/26 15:09:49;;;;;;;22.02;4.63;;;6.00;99.90;;;;;;5013972;28;20124;-83
2022/12/26 15:12:29;;;;;;;19.20;2.92;;;6.00;99.90;;;;;;5013654;28;20042;-86